Hovedside
METAR-TAF:

METAR-TAF

Lufthavner :

Esbjerg, Danmark

Esbjerg lufthavn

breddegrad: 55-32N, lengdegrad: 008-34E, høyde over havet: 30 m

Gjeldene værobservasjon

Denne rapporten ble laget for 15 minutter siden, klokken 04:20 UTC
Vind 5 kt fra Vest
Temperatur 2°C
Luftfuktighet 80%
Trykk 1001 hPa
Sikt 10 km eller mer

METAR: EKEB 250420Z AUTO 26005KT 9999NDV BKN042/// 02/M01 Q1001

Tid: 06:35 (04:35 UTC)

Varsel

Denne rapporten ble laget for 1 time og 45 minutter siden, klokken 02:50 UTC
Varsel gyldig fra 25. klokken 03 UTC til 25. klokken 12 UTC
Vind 10 kt fra Vest
Sikt 10 km eller mer
Spredte skyer i en høyde av 2000 ft
Midlertidig
fra 25. klokken 03 UTC til 25. klokken 12 UTC
Sikt: 4000 m
Brutte skyer i en høyde av 1500 ft, Bygeskyer.
regnbyger

TAF: EKEB 250250Z 2503/2512 28010KT 9999 SCT020 TEMPO 2503/2512 4000 SHRA BKN015CB

Værobservasjoner og værvarsel for over 4000 flyplasser (METAR- og TAF-rapporter).

Tilgjengelige stasjoner er representert av de røde og gule prikkene på kartet.

Hold musepekeren over prikken for å se navnet på stasjonen.

Klikk så for å se værobservasjoner og -varsler.

For å forandre kartet kan du klikke på den grønne knappen med svart kryss for å zoome inn, på den grønne knappen med strek for å zoome ut, eller på de grønne pilene for å se tilstøtende kart.


METAR-TAF: